Igo, California
Current Conditions -  °F | °C
As of 4:53 AM on Friday 24 Oct 2014 (Local Time) from KRDD Reporting Station
Scattered Clouds Scattered Clouds  
Wind Chill: 56°   Ceiling: Unl
Heat Index: 56°   Visibility: 10mi
Dew Point: 54°   Wind: 3mph
Humidity: 93%   Direction: 300°WNW
Pressure: 29.96"   Gusts: NA
Location:  40.51°N, 122.54°W
Report Text: KRDD 241153Z AUTO 30003KT 10SM SCT049 SCT110 13/12 A2996 RMK AO2 SLP141 70035 T01330122 10144 20133 58013
Loading
Personal Weather Stations






























Interactive Weather Map
Tropical Storm Tracking
New forecast layout! Learn more

10-Day Weather Forecast

Advertisements
Track Severe Weather on mobile